Time;durP1;ratioP1;P1;durP2;ratioP2;P2;SDS_P1;SDS_P2;PMS_P1;PMS_P2;Temp;Humidity;BMP_temperature;BMP_pressure;BME280_temperature;BME280_humidity;BME280_pressure;Samples;Min_cycle;Max_cycle;Signal;HPM_P1;HPM_P2
2023/09/27 00:01:01;;;;;;;;;;;15.40;99.90;;;;;;7339835;19;109649;-75
2023/09/27 00:03:28;;;;;;;;;;;15.30;99.90;;;;;;7336745;19;108907;-74
2023/09/27 00:05:55;;;;;;;;;;;15.20;99.90;;;;;;7344730;19;109282;-73
2023/09/27 00:08:22;;;;;;;;;;;15.20;99.90;;;;;;7341373;19;109083;-74
2023/09/27 00:10:50;;;;;;;;;;;15.20;99.90;;;;;;7338374;19;109457;-74
2023/09/27 00:13:17;;;;;;;;;;;15.20;99.90;;;;;;7339735;19;109130;-73
2023/09/27 00:15:45;;;;;;;;;;;15.20;99.90;;;;;;7338105;19;108581;-74
2023/09/27 00:18:12;;;;;;;;;;;15.20;99.90;;;;;;7338769;19;109872;-74
2023/09/27 00:20:40;;;;;;;;;;;15.20;99.90;;;;;;7339827;19;108363;-75
2023/09/27 00:23:08;;;;;;;;;;;15.10;99.90;;;;;;7337848;19;108688;-74
2023/09/27 00:25:35;;;;;;;;;;;15.10;99.90;;;;;;7336202;19;109569;-74
2023/09/27 00:28:02;;;;;;;;;;;15.10;99.90;;;;;;7346175;19;113299;-73
2023/09/27 00:30:29;;;;;;;;;;;15.10;99.90;;;;;;7337313;19;110170;-74
2023/09/27 00:32:57;;;;;;;;;;;15.10;99.90;;;;;;7338628;19;109135;-73
2023/09/27 00:35:24;;;;;;;;;;;15.10;99.90;;;;;;7337511;19;108795;-73
2023/09/27 00:37:51;;;;;;;;;;;15.10;99.90;;;;;;7339253;19;110698;-74
2023/09/27 00:40:22;;;;;;;;;;;15.00;99.90;;;;;;7336448;19;109001;-74
2023/09/27 00:42:49;;;;;;;;;;;15.00;99.90;;;;;;7339572;19;108959;-73
2023/09/27 00:45:19;;;;;;;;;;;14.90;99.90;;;;;;7334349;19;109106;-74
2023/09/27 00:47:48;;;;;;;;;;;14.90;99.90;;;;;;7339732;19;109698;-74
2023/09/27 00:50:16;;;;;;;;;;;14.90;99.90;;;;;;7342459;19;109337;-74
2023/09/27 00:52:44;;;;;;;;;;;14.90;99.90;;;;;;7336509;19;108942;-74
2023/09/27 00:55:13;;;;;;;;;;;14.90;99.90;;;;;;7339149;19;110941;-74
2023/09/27 00:57:40;;;;;;;;;;;14.80;99.90;;;;;;7337803;19;110328;-75
2023/09/27 01:00:10;;;;;;;;;;;14.70;99.90;;;;;;7337041;19;108895;-78
2023/09/27 01:02:39;;;;;;;;;;;14.60;99.90;;;;;;7338129;19;109744;-79
2023/09/27 01:05:09;;;;;;;;;;;14.70;99.90;;;;;;7334884;19;109888;-77
2023/09/27 01:07:39;;;;;;;;;;;14.70;99.90;;;;;;7337638;19;113614;-79
2023/09/27 01:10:07;;;;;;;;;;;14.70;99.90;;;;;;7344870;19;108744;-76
2023/09/27 01:12:36;;;;;;;;;;;14.70;99.90;;;;;;7340368;19;108976;-78
2023/09/27 01:15:05;;;;;;;;;;;14.70;99.90;;;;;;7339269;19;109614;-75
2023/09/27 01:23:06;;;;;;;;;;;14.70;99.90;;;;;;7335215;19;109319;-73
2023/09/27 01:25:34;;;;;;;;;;;14.80;99.90;;;;;;7335828;19;110143;-75
2023/09/27 01:28:03;;;;;;;;;;;14.80;99.90;;;;;;7338953;19;109278;-74
2023/09/27 01:30:32;;;;;;;;;;;14.80;99.90;;;;;;7337939;19;109324;-74
2023/09/27 01:33:00;;;;;;;;;;;14.80;99.90;;;;;;7339879;19;109167;-74
2023/09/27 01:35:27;;;;;;;;;;;14.80;99.90;;;;;;7335445;19;109398;-74
2023/09/27 01:37:54;;;;;;;;;;;14.80;99.90;;;;;;7337699;19;109307;-75
2023/09/27 01:40:26;;;;;;;;;;;14.80;99.90;;;;;;7336662;19;110197;-74
2023/09/27 01:42:53;;;;;;;;;;;14.80;99.90;;;;;;7336779;19;110896;-76
2023/09/27 01:45:20;;;;;;;;;;;14.80;99.90;;;;;;7336649;19;109139;-74
2023/09/27 01:47:48;;;;;;;;;;;14.70;99.90;;;;;;7335191;19;109506;-74
2023/09/27 01:50:15;;;;;;;;;;;14.70;99.90;;;;;;7334889;19;109203;-74
2023/09/27 01:52:42;;;;;;;;;;;14.60;99.90;;;;;;7331832;19;112033;-74
2023/09/27 01:55:09;;;;;;;;;;;14.60;99.90;;;;;;7342177;19;109262;-74
2023/09/27 01:57:36;;;;;;;;;;;14.50;99.90;;;;;;7337876;19;109317;-74
2023/09/27 02:00:07;;;;;;;;;;;14.50;99.90;;;;;;7333943;19;110619;-74
2023/09/27 02:02:34;;;;;;;;;;;14.50;99.90;;;;;;7337835;19;108885;-73
2023/09/27 02:05:05;;;;;;;;;;;14.60;99.90;;;;;;7331093;19;130011;-74
2023/09/27 02:07:32;;;;;;;;;;;14.50;99.90;;;;;;7336096;19;109265;-74
2023/09/27 02:09:59;;;;;;;;;;;14.50;99.90;;;;;;7336400;19;109565;-74
2023/09/27 02:12:27;;;;;;;;;;;14.50;99.90;;;;;;7335320;19;109172;-74
2023/09/27 02:14:54;;;;;;;;;;;14.40;99.90;;;;;;7336125;19;108958;-75
2023/09/27 02:17:21;;;;;;;;;;;14.40;99.90;;;;;;7340713;19;110112;-75
2023/09/27 02:19:49;;;;;;;;;;;14.40;99.90;;;;;;7333501;19;110304;-74
2023/09/27 02:22:16;;;;;;;;;;;14.40;99.90;;;;;;7336634;19;109592;-74
2023/09/27 02:24:43;;;;;;;;;;;14.40;99.90;;;;;;7334110;19;109246;-75
2023/09/27 02:27:10;;;;;;;;;;;14.40;99.90;;;;;;7335154;19;109906;-74
2023/09/27 02:29:37;;;;;;;;;;;14.40;99.90;;;;;;7337726;19;110689;-73
2023/09/27 02:32:05;;;;;;;;;;;14.30;99.90;;;;;;7334018;19;109086;-74
2023/09/27 02:34:32;;;;;;;;;;;14.30;99.90;;;;;;7337904;19;109231;-74
2023/09/27 02:37:00;;;;;;;;;;;14.20;99.90;;;;;;7335011;19;109495;-74
2023/09/27 02:39:28;;;;;;;;;;;14.20;99.90;;;;;;7340691;19;110416;-75
2023/09/27 02:41:59;;;;;;;;;;;14.20;99.90;;;;;;7334149;19;110016;-74
2023/09/27 02:44:27;;;;;;;;;;;14.30;99.90;;;;;;7334193;19;109882;-74
2023/09/27 02:46:58;;;;;;;;;;;14.30;99.90;;;;;;7332165;19;109697;-73
2023/09/27 02:49:25;;;;;;;;;;;14.30;99.90;;;;;;7333291;19;109447;-74
2023/09/27 02:51:53;;;;;;;;;;;14.30;99.90;;;;;;7332670;19;110388;-74
2023/09/27 02:54:20;;;;;;;;;;;14.20;99.90;;;;;;7333483;19;108304;-74
2023/09/27 02:56:47;;;;;;;;;;;14.20;99.90;;;;;;7334691;19;108661;-74
2023/09/27 02:59:14;;;;;;;;;;;14.20;99.90;;;;;;7332589;19;109477;-74
2023/09/27 03:01:43;;;;;;;;;;;14.20;99.90;;;;;;7340055;19;108865;-74
2023/09/27 03:04:11;;;;;;;;;;;14.20;99.90;;;;;;7335075;19;111265;-75
2023/09/27 03:06:39;;;;;;;;;;;14.20;99.90;;;;;;7330049;19;110744;-74
2023/09/27 03:09:06;;;;;;;;;;;14.20;99.90;;;;;;7331625;19;108779;-74
2023/09/27 03:11:34;;;;;;;;;;;14.20;99.90;;;;;;7330271;19;109822;-74
2023/09/27 03:14:01;;;;;;;;;;;14.20;99.90;;;;;;7334007;19;108927;-75
2023/09/27 03:16:29;;;;;;;;;;;14.20;99.90;;;;;;7331873;19;109843;-73
2023/09/27 03:19:00;;;;;;;;;;;14.20;99.90;;;;;;7336178;19;109580;-76
2023/09/27 03:21:28;;;;;;;;;;;14.20;99.90;;;;;;7336960;19;110615;-74
2023/09/27 03:23:56;;;;;;;;;;;14.20;99.90;;;;;;7332158;19;109779;-75
2023/09/27 03:26:23;;;;;;;;;;;14.20;99.90;;;;;;7332134;19;110213;-74
2023/09/27 03:28:50;;;;;;;;;;;14.10;99.90;;;;;;7334074;19;110214;-74
2023/09/27 03:31:19;;;;;;;;;;;14.10;99.90;;;;;;7330430;19;110061;-74
2023/09/27 03:33:46;;;;;;;;;;;14.00;99.90;;;;;;7333136;19;109512;-73
2023/09/27 03:36:14;;;;;;;;;;;14.00;99.90;;;;;;7333981;19;109774;-73
2023/09/27 03:38:42;;;;;;;;;;;14.00;99.90;;;;;;7331744;19;109110;-74
2023/09/27 03:41:09;;;;;;;;;;;13.90;99.90;;;;;;7334650;19;108864;-74
2023/09/27 03:43:37;;;;;;;;;;;13.90;99.90;;;;;;7337942;19;110014;-74
2023/09/27 03:46:04;;;;;;;;;;;13.90;99.90;;;;;;7331890;19;108909;-75
2023/09/27 03:48:32;;;;;;;;;;;13.90;99.90;;;;;;7333231;19;108582;-75
2023/09/27 03:50:59;;;;;;;;;;;13.90;99.90;;;;;;7329569;19;109232;-74
2023/09/27 03:53:26;;;;;;;;;;;13.90;99.90;;;;;;7332852;19;110515;-74
2023/09/27 03:55:54;;;;;;;;;;;13.90;99.90;;;;;;7332069;19;116860;-74
2023/09/27 03:58:21;;;;;;;;;;;13.90;99.90;;;;;;7333134;19;109589;-73
2023/09/27 04:00:48;;;;;;;;;;;13.80;99.90;;;;;;7331036;19;109289;-75
2023/09/27 04:03:20;;;;;;;;;;;13.80;99.90;;;;;;7330670;19;109035;-74
2023/09/27 04:05:47;;;;;;;;;;;13.90;99.90;;;;;;7337888;19;115422;-74
2023/09/27 04:08:14;;;;;;;;;;;13.90;99.90;;;;;;7330230;19;108568;-74
2023/09/27 04:10:41;;;;;;;;;;;13.90;99.90;;;;;;7329633;19;109118;-74
2023/09/27 04:13:09;;;;;;;;;;;13.90;99.90;;;;;;7331143;19;108687;-74
2023/09/27 04:15:36;;;;;;;;;;;13.90;99.90;;;;;;7329438;19;109205;-75
2023/09/27 04:18:04;;;;;;;;;;;13.90;99.90;;;;;;7332156;19;109132;-76
2023/09/27 04:20:31;;;;;;;;;;;13.90;99.90;;;;;;7336580;19;110613;-78
2023/09/27 04:23:03;;;;;;;;;;;13.80;99.90;;;;;;7339589;19;108953;-75
2023/09/27 04:25:30;;;;;;;;;;;13.80;99.90;;;;;;7339323;19;109598;-77
2023/09/27 04:27:57;;;;;;;;;;;13.80;99.90;;;;;;7342266;19;108388;-78
2023/09/27 04:30:25;;;;;;;;;;;13.80;99.90;;;;;;7337259;19;109114;-80
2023/09/27 04:32:52;;;;;;;;;;;13.80;99.90;;;;;;7339351;19;109037;-79
2023/09/27 04:35:20;;;;;;;;;;;13.80;99.90;;;;;;7339021;19;110260;-78
2023/09/27 04:37:48;;;;;;;;;;;13.80;99.90;;;;;;7339561;19;114514;-78
2023/09/27 04:40:17;;;;;;;;;;;13.80;99.90;;;;;;7338578;19;108837;-80
2023/09/27 04:42:45;;;;;;;;;;;13.80;99.90;;;;;;7340469;19;109558;-78
2023/09/27 04:45:13;;;;;;;;;;;13.80;99.90;;;;;;7338224;19;111512;-77
2023/09/27 04:47:40;;;;;;;;;;;13.80;99.90;;;;;;7336586;19;108967;-78
2023/09/27 04:50:12;;;;;;;;;;;13.80;99.90;;;;;;7344103;19;109514;-79
2023/09/27 04:52:40;;;;;;;;;;;13.80;99.90;;;;;;7337670;19;108837;-76
2023/09/27 04:55:08;;;;;;;;;;;13.80;99.90;;;;;;7339362;19;109263;-76
2023/09/27 04:57:36;;;;;;;;;;;13.80;99.90;;;;;;7338831;19;109517;-75
2023/09/27 05:00:04;;;;;;;;;;;13.80;99.90;;;;;;7335989;19;108632;-76
2023/09/27 05:02:31;;;;;;;;;;;13.90;99.90;;;;;;7338015;19;108862;-75
2023/09/27 05:04:58;;;;;;;;;;;13.80;99.90;;;;;;7335844;19;110136;-75
2023/09/27 05:07:25;;;;;;;;;;;13.80;99.90;;;;;;7340017;19;108637;-76
2023/09/27 05:09:53;;;;;;;;;;;13.80;99.90;;;;;;7338829;19;110657;-75
2023/09/27 05:12:20;;;;;;;;;;;13.70;99.90;;;;;;7336764;19;109182;-75
2023/09/27 05:14:47;;;;;;;;;;;13.70;99.90;;;;;;7336947;19;110098;-75
2023/09/27 05:17:15;;;;;;;;;;;13.70;99.90;;;;;;7336313;19;109133;-74
2023/09/27 05:19:42;;;;;;;;;;;13.60;99.90;;;;;;7334022;19;108750;-74
2023/09/27 05:22:09;;;;;;;;;;;13.60;99.90;;;;;;7337431;19;109493;-74
2023/09/27 05:24:38;;;;;;;;;;;13.50;99.90;;;;;;7337164;19;109264;-74
2023/09/27 05:27:07;;;;;;;;;;;13.50;99.90;;;;;;7337643;19;108759;-75
2023/09/27 05:29:34;;;;;;;;;;;13.60;99.90;;;;;;7335535;19;109319;-74
2023/09/27 05:32:02;;;;;;;;;;;13.60;99.90;;;;;;7342719;19;110629;-74
2023/09/27 05:34:33;;;;;;;;;;;13.50;99.90;;;;;;7336556;19;111593;-74
2023/09/27 05:37:01;;;;;;;;;;;13.50;99.90;;;;;;7337557;19;110645;-75
2023/09/27 05:39:28;;;;;;;;;;;13.50;99.90;;;;;;7334327;19;108863;-74
2023/09/27 05:41:56;;;;;;;;;;;13.50;99.90;;;;;;7339042;19;109028;-74
2023/09/27 05:44:23;;;;;;;;;;;13.50;99.90;;;;;;7333911;19;109253;-75
2023/09/27 05:46:50;;;;;;;;;;;13.60;99.90;;;;;;7338466;19;109335;-74
2023/09/27 05:49:18;;;;;;;;;;;13.60;99.90;;;;;;7338238;19;109555;-74
2023/09/27 05:51:45;;;;;;;;;;;13.80;99.90;;;;;;7335635;19;110209;-74
2023/09/27 05:54:13;;;;;;;;;;;13.80;99.90;;;;;;7341724;19;108718;-74
2023/09/27 05:56:40;;;;;;;;;;;13.80;99.90;;;;;;7335476;19;109908;-69
2023/09/27 05:59:11;;;;;;;;;;;13.70;99.90;;;;;;7339559;19;108590;-69
2023/09/27 06:01:39;;;;;;;;;;;13.70;99.90;;;;;;7337381;19;109054;-69
2023/09/27 06:04:06;;;;;;;;;;;13.70;99.90;;;;;;7337394;19;110484;-69
2023/09/27 06:06:34;;;;;;;;;;;13.80;99.90;;;;;;7335884;19;109779;-68
2023/09/27 06:09:02;;;;;;;;;;;13.80;99.90;;;;;;7336500;19;108522;-69
2023/09/27 06:11:30;;;;;;;;;;;13.80;99.90;;;;;;7339257;19;109536;-68
2023/09/27 06:13:57;;;;;;;;;;;13.80;99.90;;;;;;7335577;19;113029;-69
2023/09/27 06:16:24;;;;;;;;;;;13.90;99.90;;;;;;7340482;19;109111;-71
2023/09/27 06:18:52;;;;;;;;;;;13.90;99.90;;;;;;7334325;19;108528;-68
2023/09/27 06:21:19;;;;;;;;;;;14.00;99.90;;;;;;7335929;19;108853;-69
2023/09/27 06:23:46;;;;;;;;;;;14.10;99.90;;;;;;7333760;19;109201;-69
2023/09/27 06:26:14;;;;;;;;;;;14.10;99.90;;;;;;7336516;19;109964;-69
2023/09/27 06:28:41;;;;;;;;;;;14.20;99.90;;;;;;7335687;19;109082;-69
2023/09/27 06:31:09;;;;;;;;;;;14.20;99.90;;;;;;7330769;19;108986;-69
2023/09/27 06:33:39;;;;;;;;;;;14.40;99.90;;;;;;7338755;19;108686;-69
2023/09/27 06:36:07;;;;;;;;;;;14.40;99.90;;;;;;7337672;19;109032;-69
2023/09/27 06:38:35;;;;;;;;;;;14.50;99.90;;;;;;7340603;19;110294;-69
2023/09/27 06:41:02;;;;;;;;;;;14.60;99.90;;;;;;7335616;19;113108;-69
2023/09/27 06:43:31;;;;;;;;;;;14.60;99.90;;;;;;7329885;19;109491;-69
2023/09/27 06:46:01;;;;;;;;;;;14.70;99.90;;;;;;7335376;19;109738;-69
2023/09/27 06:48:28;;;;;;;;;;;14.80;99.90;;;;;;7334352;19;108935;-69
2023/09/27 06:50:56;;;;;;;;;;;14.80;99.90;;;;;;7335197;19;109160;-69
2023/09/27 06:53:24;;;;;;;;;;;14.80;99.90;;;;;;7335726;19;108774;-71
2023/09/27 06:55:58;;;;;;;;;;;14.80;99.90;;;;;;7336755;19;108778;-69
2023/09/27 06:58:26;;;;;;;;;;;14.80;99.90;;;;;;7332296;19;111517;-69
2023/09/27 07:00:53;;;;;;;;;;;14.90;99.90;;;;;;7343478;19;108871;-71
2023/09/27 07:03:24;;;;;;;;;;;14.90;99.90;;;;;;7335685;19;109240;-70
2023/09/27 07:05:53;;;;;;;;;;;14.90;99.90;;;;;;7336141;19;108484;-71
2023/09/27 07:08:20;;;;;;;;;;;14.90;99.90;;;;;;7333061;19;109570;-70
2023/09/27 07:10:47;;;;;;;;;;;14.90;99.90;;;;;;7336589;19;109220;-71
2023/09/27 07:13:15;;;;;;;;;;;14.90;99.90;;;;;;7332163;19;110542;-71
2023/09/27 07:15:48;;;;;;;;;;;15.00;99.90;;;;;;7335418;19;108571;-70
2023/09/27 07:18:15;;;;;;;;;;;15.00;99.90;;;;;;7337556;19;109502;-72
2023/09/27 07:20:43;;;;;;;;;;;15.10;99.90;;;;;;7340589;19;109791;-72
2023/09/27 07:23:14;;;;;;;;;;;15.20;99.90;;;;;;7329245;19;109991;-71
2023/09/27 07:25:42;;;;;;;;;;;15.30;99.90;;;;;;7335360;19;109000;-71
2023/09/27 07:28:10;;;;;;;;;;;15.40;99.90;;;;;;7332469;19;109499;-74
2023/09/27 07:30:37;;;;;;;;;;;15.50;99.90;;;;;;7334864;19;109706;-78
2023/09/27 07:33:10;;;;;;;;;;;15.60;99.90;;;;;;7334438;19;108736;-77
2023/09/27 07:35:42;;;;;;;;;;;15.70;99.90;;;;;;7332525;19;109742;-72
2023/09/27 07:38:13;;;;;;;;;;;15.90;99.90;;;;;;7334446;19;109268;-77
2023/09/27 07:40:48;;;;;;;;;;;16.00;99.90;;;;;;7332176;19;109833;-70
2023/09/27 07:46:22;;;;;;;;;;;16.20;99.90;;;;;;7369053;19;109104;-72
2023/09/27 07:48:50;;;;;;;;;;;16.30;99.90;;;;;;7374933;19;109254;-72
2023/09/27 07:51:18;;;;;;;;;;;16.50;99.90;;;;;;7370621;19;108837;-72
2023/09/27 07:53:45;;;;;;;;;;;16.60;99.90;;;;;;7371582;19;109601;-72
2023/09/27 07:56:20;;;;;;;;;;;16.70;99.90;;;;;;7369037;19;109106;-73
2023/09/27 07:58:51;;;;;;;;;;;16.90;99.90;;;;;;7373141;19;108214;-71
2023/09/27 08:01:20;;;;;;;;;;;16.90;99.90;;;;;;7365957;19;110315;-73
2023/09/27 08:03:49;;;;;;;;;;;17.00;99.90;;;;;;7368728;19;108825;-72
2023/09/27 08:06:18;;;;;;;;;;;17.20;99.90;;;;;;7375700;19;110177;-71
2023/09/27 08:08:45;;;;;;;;;;;17.30;99.90;;;;;;7371407;19;109069;-72
2023/09/27 08:11:16;;;;;;;;;;;17.50;99.90;;;;;;7366081;19;111298;-71
2023/09/27 08:13:43;;;;;;;;;;;17.70;99.90;;;;;;7367841;19;110264;-72
2023/09/27 08:16:10;;;;;;;;;;;17.80;99.90;;;;;;7367620;19;108601;-72
2023/09/27 08:18:37;;;;;;;;;;;18.00;99.90;;;;;;7367368;19;113156;-71
2023/09/27 08:21:04;;;;;;;;;;;18.10;99.90;;;;;;7367913;19;110597;-71
2023/09/27 08:23:32;;;;;;;;;;;18.20;99.90;;;;;;7370367;19;108706;-72
2023/09/27 08:25:59;;;;;;;;;;;18.30;99.90;;;;;;7368991;19;109855;-72
2023/09/27 08:28:31;;;;;;;;;;;18.50;99.90;;;;;;7375539;19;110093;-73
2023/09/27 08:30:59;;;;;;;;;;;18.60;99.90;;;;;;7369410;19;109038;-72
2023/09/27 08:33:27;;;;;;;;;;;18.80;99.90;;;;;;7368624;19;109149;-73
2023/09/27 08:35:55;;;;;;;;;;;18.90;99.90;;;;;;7366204;19;108891;-73
2023/09/27 08:38:26;;;;;;;;;;;19.10;99.90;;;;;;7371432;19;108947;-73
2023/09/27 08:40:53;;;;;;;;;;;19.20;99.90;;;;;;7370387;19;109279;-73
2023/09/27 08:43:22;;;;;;;;;;;19.30;99.90;;;;;;7368808;19;108573;-73
2023/09/27 08:45:51;;;;;;;;;;;19.40;99.90;;;;;;7370577;19;109132;-75
2023/09/27 08:48:22;;;;;;;;;;;19.60;99.90;;;;;;7368274;19;110436;-73
2023/09/27 08:50:50;;;;;;;;;;;19.60;99.90;;;;;;7373749;19;108339;-73
2023/09/27 08:53:17;;;;;;;;;;;19.80;99.90;;;;;;7369723;19;113372;-73
2023/09/27 08:55:47;;;;;;;;;;;19.90;99.90;;;;;;7359804;19;109002;-73
2023/09/27 08:58:18;;;;;;;;;;;20.00;99.90;;;;;;7339413;19;110710;-75
2023/09/27 09:00:45;;;;;;;;;;;20.10;99.90;;;;;;7339514;19;109094;-72
2023/09/27 09:03:14;;;;;;;;;;;20.10;99.90;;;;;;7339168;19;109550;-73
2023/09/27 09:05:41;;;;;;;;;;;20.20;99.90;;;;;;7338645;19;108605;-72
2023/09/27 09:08:09;;;;;;;;;;;20.20;99.90;;;;;;7338405;19;111426;-73
2023/09/27 09:10:37;;;;;;;;;;;20.20;99.90;;;;;;7340517;19;108520;-72
2023/09/27 09:13:05;;;;;;;;;;;20.20;99.90;;;;;;7342965;19;108669;-72
2023/09/27 09:15:40;;;;;;;;;;;20.30;99.90;;;;;;7339832;19;108826;-73
2023/09/27 09:18:14;;;;;;;;;;;20.20;99.90;;;;;;7340546;19;109396;-74
2023/09/27 09:20:49;;;;;;;;;;;20.20;99.90;;;;;;7339680;19;110760;-73
2023/09/27 09:23:35;;;;;;;;;;;20.20;99.90;;;;;;7341604;19;108341;-73
2023/09/27 09:26:09;;;;;;;;;;;20.20;99.90;;;;;;7340325;19;109467;-72
2023/09/27 09:28:56;;;;;;;;;;;20.30;99.90;;;;;;7338647;19;110143;-73
2023/09/27 09:31:25;;;;;;;;;;;20.30;99.90;;;;;;7336425;19;109342;-72
2023/09/27 09:34:21;;;;;;;;;;;20.50;99.90;;;;;;7336423;19;108445;-73
2023/09/27 09:36:49;;;;;;;;;;;20.50;99.90;;;;;;7341753;19;110620;-72
2023/09/27 09:39:20;;;;;;;;;;;20.70;99.90;;;;;;7341585;19;108597;-72
2023/09/27 09:41:49;;;;;;;;;;;20.90;99.90;;;;;;7336959;19;109145;-73
2023/09/27 09:44:20;;;;;;;;;;;20.90;99.90;;;;;;7341119;19;108461;-72
2023/09/27 09:46:48;;;;;;;;;;;21.00;99.90;;;;;;7335690;19;108475;-73
2023/09/27 09:49:16;;;;;;;;;;;21.00;99.90;;;;;;7336925;19;110082;-73
2023/09/27 09:51:46;;;;;;;;;;;21.10;99.90;;;;;;7338518;19;108752;-72
2023/09/27 09:54:18;;;;;;;;;;;21.20;99.90;;;;;;7338110;19;108749;-73
2023/09/27 09:56:49;;;;;;;;;;;21.40;99.90;;;;;;7337647;19;109164;-71
2023/09/27 09:59:34;;;;;;;;;;;21.40;99.90;;;;;;7342676;19;108968;-72
2023/09/27 10:02:09;;;;;;;;;;;21.40;99.90;;;;;;7337511;19;109935;-72
2023/09/27 10:04:37;;;;;;;;;;;21.40;99.90;;;;;;7338435;19;110049;-72
2023/09/27 10:07:05;;;;;;;;;;;21.40;99.90;;;;;;7336167;19;108775;-72
2023/09/27 10:09:33;;;;;;;;;;;21.50;99.90;;;;;;7336240;19;110282;-72
2023/09/27 10:12:01;;;;;;;;;;;21.50;99.90;;;;;;7336573;19;109024;-72
2023/09/27 10:14:29;;;;;;;;;;;21.60;99.90;;;;;;7339230;19;108686;-72
2023/09/27 10:16:56;;;;;;;;;;;21.70;99.90;;;;;;7335411;19;109111;-71
2023/09/27 10:19:28;;;;;;;;;;;21.80;99.90;;;;;;7343770;19;108722;-72
2023/09/27 10:22:07;;;;;;;;;;;21.90;99.90;;;;;;7334432;19;109282;-71
2023/09/27 10:24:36;;;;;;;;;;;22.10;99.90;;;;;;7335230;19;109494;-71
2023/09/27 10:27:04;;;;;;;;;;;22.20;99.90;;;;;;7335857;19;109284;-72
2023/09/27 10:29:31;;;;;;;;;;;22.30;99.90;;;;;;7339333;19;108920;-72
2023/09/27 10:31:58;;;;;;;;;;;22.30;99.90;;;;;;7336882;19;108461;-71
2023/09/27 10:34:28;;;;;;;;;;;22.50;99.90;;;;;;7334221;19;109941;-71
2023/09/27 10:37:00;;;;;;;;;;;22.60;99.90;;;;;;7337577;19;109201;-72
2023/09/27 10:39:30;;;;;;;;;;;22.70;99.90;;;;;;7337198;19;108923;-72
2023/09/27 10:41:57;;;;;;;;;;;22.70;99.90;;;;;;7342696;19;108805;-72
2023/09/27 10:44:29;;;;;;;;;;;22.70;99.90;;;;;;7335556;19;111056;-71
2023/09/27 10:47:03;;;;;;;;;;;22.70;99.90;;;;;;7337029;19;109220;-71
2023/09/27 10:49:38;;;;;;;;;;;22.70;99.90;;;;;;7333866;19;110903;-72
2023/09/27 10:52:16;;;;;;;;;;;22.70;99.90;;;;;;7336937;19;109184;-72
2023/09/27 10:54:43;;;;;;;;;;;22.70;99.90;;;;;;7333700;19;111435;-72
2023/09/27 10:57:14;;;;;;;;;;;22.70;99.90;;;;;;7335583;19;109680;-72
2023/09/27 10:59:44;;;;;;;;;;;22.90;99.90;;;;;;7333654;19;108378;-72
2023/09/27 11:02:12;;;;;;;;;;;22.80;99.90;;;;;;7332196;19;110251;-71
2023/09/27 11:04:40;;;;;;;;;;;22.80;99.90;;;;;;7337883;19;109563;-72
2023/09/27 11:07:08;;;;;;;;;;;22.80;99.90;;;;;;7337289;19;108937;-71
2023/09/27 11:09:43;;;;;;;;;;;22.80;99.90;;;;;;7333758;19;110674;-72
2023/09/27 11:12:10;;;;;;;;;;;22.90;99.90;;;;;;7336525;19;109185;-72
2023/09/27 11:14:43;;;;;;;;;;;22.90;99.90;;;;;;7336703;19;110733;-72
2023/09/27 11:17:18;;;;;;;;;;;22.90;99.90;;;;;;7332482;19;109799;-72
2023/09/27 11:19:45;;;;;;;;;;;23.00;99.90;;;;;;7330753;19;109318;-72
2023/09/27 11:22:22;;;;;;;;;;;23.00;99.90;;;;;;7335877;19;110380;-72
2023/09/27 11:24:50;;;;;;;;;;;23.00;99.90;;;;;;7334310;19;110640;-71
2023/09/27 11:27:20;;;;;;;;;;;23.00;99.90;;;;;;7339584;19;108532;-72
2023/09/27 11:29:52;;;;;;;;;;;23.00;99.90;;;;;;7335169;19;109485;-72
2023/09/27 11:32:23;;;;;;;;;;;23.00;99.90;;;;;;7332924;19;108783;-71
2023/09/27 11:34:56;;;;;;;;;;;23.10;99.90;;;;;;7333120;19;111341;-71
2023/09/27 11:37:24;;;;;;;;;;;23.30;99.90;;;;;;7334405;19;110104;-72
2023/09/27 11:39:52;;;;;;;;;;;23.40;99.90;;;;;;7335814;19;109186;-72
2023/09/27 11:42:23;;;;;;;;;;;23.40;99.90;;;;;;7333651;19;108536;-72
2023/09/27 11:45:08;;;;;;;;;;;23.40;99.90;;;;;;7335025;19;109605;-73
2023/09/27 11:47:46;;;;;;;;;;;23.40;99.90;;;;;;7331610;19;108564;-71
2023/09/27 11:50:17;;;;;;;;;;;23.50;99.90;;;;;;7337513;19;108538;-72
2023/09/27 11:52:46;;;;;;;;;;;23.50;99.90;;;;;;7334130;19;109082;-71
2023/09/27 11:55:14;;;;;;;;;;;23.50;99.90;;;;;;7333454;19;108767;-72
2023/09/27 11:57:41;;;;;;;;;;;23.60;99.90;;;;;;7334727;19;109136;-72
2023/09/27 12:00:13;;;;;;;;;;;23.60;99.90;;;;;;7331201;19;109193;-71
2023/09/27 12:02:40;;;;;;;;;;;23.70;99.90;;;;;;7333898;19;108806;-72
2023/09/27 12:05:22;;;;;;;;;;;23.80;99.90;;;;;;7332788;19;110245;-72
2023/09/27 12:07:50;;;;;;;;;;;23.90;99.90;;;;;;7333190;19;110178;-72
2023/09/27 12:10:17;;;;;;;;;;;24.10;99.90;;;;;;7337303;19;110542;-72
2023/09/27 12:12:45;;;;;;;;;;;24.30;99.90;;;;;;7332565;19;110621;-72
2023/09/27 12:15:12;;;;;;;;;;;24.50;99.90;;;;;;7334784;19;111913;-72
2023/09/27 12:17:39;;;;;;;;;;;24.60;99.90;;;;;;7329960;19;110600;-72
2023/09/27 12:20:06;;;;;;;;;;;24.80;99.90;;;;;;7334263;19;108299;-71
2023/09/27 12:22:48;;;;;;;;;;;24.90;99.90;;;;;;7335186;19;109919;-71
2023/09/27 12:25:15;;;;;;;;;;;25.10;99.90;;;;;;7336059;19;109441;-70
2023/09/27 12:27:42;;;;;;;;;;;25.30;99.90;;;;;;7331310;19;109033;-71
2023/09/27 12:30:10;;;;;;;;;;;25.50;99.90;;;;;;7333172;19;109389;-73
2023/09/27 12:32:37;;;;;;;;;;;25.60;99.90;;;;;;7344675;19;112143;-73
2023/09/27 12:35:05;;;;;;;;;;;25.80;99.90;;;;;;7339855;19;110391;-71
2023/09/27 12:37:32;;;;;;;;;;;26.00;99.90;;;;;;7336744;19;111628;-73
2023/09/27 12:39:59;;;;;;;;;;;26.20;99.90;;;;;;7339961;19;108634;-73
2023/09/27 12:42:26;;;;;;;;;;;26.30;99.90;;;;;;7339816;19;109075;-73
2023/09/27 12:44:54;;;;;;;;;;;26.40;99.90;;;;;;7337325;19;109211;-72
2023/09/27 12:47:21;;;;;;;;;;;26.40;99.90;;;;;;7338558;19;109045;-72
2023/09/27 12:49:48;;;;;;;;;;;26.30;99.90;;;;;;7336598;19;108866;-72
2023/09/27 12:52:15;;;;;;;;;;;26.20;99.90;;;;;;7338586;19;109903;-73
2023/09/27 12:57:24;;;;;;;;;;;26.30;99.90;;;;;;7350640;19;108155;-91
2023/09/27 12:59:51;;;;;;;;;;;26.30;99.90;;;;;;7342028;19;109073;-91
2023/09/27 13:05:09;;;;;;;;;;;26.50;99.90;;;;;;7327712;19;111081;-73
2023/09/27 13:07:37;;;;;;;;;;;26.60;99.90;;;;;;7338956;19;108433;-72
2023/09/27 13:10:05;;;;;;;;;;;26.70;99.90;;;;;;7335770;19;109897;-73
2023/09/27 13:12:32;;;;;;;;;;;26.80;99.90;;;;;;7337964;19;109092;-72
2023/09/27 13:14:59;;;;;;;;;;;26.80;99.90;;;;;;7340570;19;108847;-71
2023/09/27 13:17:26;;;;;;;;;;;26.80;99.90;;;;;;7344557;19;109587;-71
2023/09/27 13:19:53;;;;;;;;;;;26.80;99.90;;;;;;7339029;19;108982;-72
2023/09/27 13:22:21;;;;;;;;;;;26.70;99.90;;;;;;7339056;19;109042;-72
2023/09/27 13:24:48;;;;;;;;;;;26.70;99.90;;;;;;7337239;19;110128;-72
2023/09/27 13:27:15;;;;;;;;;;;26.90;99.90;;;;;;7337416;19;109755;-72
2023/09/27 13:29:42;;;;;;;;;;;27.00;99.90;;;;;;7336227;19;109358;-71
2023/09/27 13:32:12;;;;;;;;;;;27.20;99.90;;;;;;7338926;19;109504;-72
2023/09/27 13:34:40;;;;;;;;;;;27.20;99.90;;;;;;7338379;19;109039;-71
2023/09/27 13:37:07;;;;;;;;;;;27.20;99.90;;;;;;7338727;19;110751;-72
2023/09/27 13:39:34;;;;;;;;;;;27.30;99.90;;;;;;7342666;19;110721;-72
2023/09/27 13:42:01;;;;;;;;;;;27.20;99.90;;;;;;7337080;19;108623;-72
2023/09/27 13:44:29;;;;;;;;;;;27.10;99.90;;;;;;7335899;19;109522;-72
2023/09/27 13:46:56;;;;;;;;;;;27.20;99.90;;;;;;7338354;19;108854;-72
2023/09/27 13:49:23;;;;;;;;;;;27.10;99.90;;;;;;7337459;19;109759;-73
2023/09/27 13:51:50;;;;;;;;;;;27.10;99.90;;;;;;7336212;19;109196;-71
2023/09/27 13:54:17;;;;;;;;;;;27.00;99.90;;;;;;7336749;19;109479;-72
2023/09/27 13:56:44;;;;;;;;;;;27.00;99.90;;;;;;7336042;19;109331;-71
2023/09/27 13:59:12;;;;;;;;;;;27.00;99.90;;;;;;7334436;19;109702;-71
2023/09/27 14:01:39;;;;;;;;;;;26.90;99.90;;;;;;7339154;19;108890;-71
2023/09/27 14:04:07;;;;;;;;;;;26.90;99.90;;;;;;7339005;19;109812;-71
2023/09/27 14:06:34;;;;;;;;;;;26.80;99.90;;;;;;7332975;19;108347;-71
2023/09/27 14:09:02;;;;;;;;;;;26.80;99.90;;;;;;7339522;19;108480;-71
2023/09/27 14:11:29;;;;;;;;;;;26.70;99.90;;;;;;7334884;19;109249;-71
2023/09/27 14:13:56;;;;;;;;;;;26.70;99.90;;;;;;7336809;19;108591;-71
2023/09/27 14:16:23;;;;;;;;;;;26.60;99.90;;;;;;7336233;19;111484;-71
2023/09/27 14:18:52;;;;;;;;;;;26.60;99.90;;;;;;7333934;19;109248;-71
2023/09/27 14:21:20;;;;;;;;;;;26.60;99.90;;;;;;7341899;19;110580;-71
2023/09/27 14:23:48;;;;;;;;;;;26.60;99.90;;;;;;7335668;19;110124;-71
2023/09/27 14:26:18;;;;;;;;;;;26.60;99.90;;;;;;7335792;19;112289;-71